createdAt,value
2018-10-12T00:00:22.996Z,6.10
2018-10-12T00:02:50.984Z,6.33
2018-10-12T00:05:18.987Z,6.20
2018-10-12T00:07:47.002Z,6.23
2018-10-12T00:10:15.023Z,6.30
2018-10-12T00:12:44.036Z,6.57
2018-10-12T00:15:12.053Z,6.73
2018-10-12T00:17:40.080Z,6.23
2018-10-12T00:20:08.510Z,7.20
2018-10-12T00:22:36.509Z,6.80
2018-10-12T00:25:04.681Z,6.10
2018-10-12T00:27:32.677Z,5.57
2018-10-12T00:30:00.699Z,5.87
2018-10-12T00:32:28.708Z,6.60
2018-10-12T00:34:56.789Z,6.50
2018-10-12T00:37:24.796Z,5.93
2018-10-12T00:39:52.812Z,6.40
2018-10-12T00:42:20.814Z,6.20
2018-10-12T00:44:48.836Z,6.70
2018-10-12T00:47:16.839Z,6.30
2018-10-12T00:49:44.865Z,6.47
2018-10-12T00:52:12.854Z,6.07
2018-10-12T00:54:40.852Z,6.43
2018-10-12T00:57:08.856Z,6.40
2018-10-12T00:59:36.860Z,6.40
2018-10-12T01:02:04.905Z,6.67
2018-10-12T01:04:32.893Z,6.30
2018-10-12T01:07:00.906Z,5.93
2018-10-12T01:09:29.929Z,6.27
2018-10-12T01:12:03.660Z,5.80
2018-10-12T01:14:31.613Z,6.07
2018-10-12T01:16:59.605Z,5.20
2018-10-12T01:19:27.627Z,5.83
2018-10-12T01:21:56.754Z,5.63
2018-10-12T01:24:24.766Z,6.00
2018-10-12T01:26:52.748Z,5.70
2018-10-12T01:29:20.768Z,6.10
2018-10-12T01:31:48.750Z,5.73
2018-10-12T01:34:16.763Z,5.83
2018-10-12T01:36:44.749Z,6.00
2018-10-12T01:39:12.768Z,5.43
2018-10-12T01:41:40.757Z,5.87
2018-10-12T01:44:08.756Z,6.27
2018-10-12T01:46:36.753Z,5.43
2018-10-12T01:49:04.766Z,5.03
2018-10-12T01:51:33.806Z,6.07
2018-10-12T01:54:01.811Z,5.43
2018-10-12T01:56:29.793Z,5.87
2018-10-12T01:58:57.788Z,6.07
2018-10-12T02:01:25.797Z,5.90
2018-10-12T02:03:53.772Z,4.97
2018-10-12T02:06:21.793Z,5.50
2018-10-12T02:08:49.798Z,6.23
2018-10-12T02:11:17.809Z,5.10
2018-10-12T02:13:45.804Z,6.80
2018-10-12T02:16:13.816Z,6.17
2018-10-12T02:18:41.809Z,5.90
2018-10-12T02:21:10.841Z,6.17
2018-10-12T02:23:38.830Z,5.60
2018-10-12T02:26:06.864Z,5.17
2018-10-12T02:28:34.857Z,6.33
2018-10-12T02:31:02.882Z,5.47
2018-10-12T02:33:31.901Z,6.33
2018-10-12T02:35:59.921Z,5.90
2018-10-12T02:38:27.914Z,5.53
2018-10-12T02:40:55.914Z,5.13
2018-10-12T02:43:23.936Z,6.27
2018-10-12T02:45:51.917Z,5.50
2018-10-12T02:48:19.933Z,5.30
2018-10-12T02:50:47.925Z,6.10
2018-10-12T02:53:15.951Z,4.70
2018-10-12T02:55:43.939Z,6.10
2018-10-12T02:58:11.938Z,5.67
2018-10-12T03:00:39.928Z,4.97
2018-10-12T03:03:07.945Z,5.47
2018-10-12T03:05:35.936Z,5.20
2018-10-12T03:08:03.925Z,5.93
2018-10-12T03:10:31.942Z,5.20
2018-10-12T03:12:59.929Z,5.00
2018-10-12T03:15:28.908Z,5.63
2018-10-12T03:17:56.885Z,5.07
2018-10-12T03:20:24.898Z,5.57
2018-10-12T03:22:52.894Z,5.07
2018-10-12T03:25:20.914Z,5.80
2018-10-12T03:27:54.569Z,5.57
2018-10-12T03:30:23.021Z,4.97
2018-10-12T03:32:51.069Z,5.60
2018-10-12T03:35:19.090Z,4.37
2018-10-12T03:37:48.082Z,5.63
2018-10-12T03:40:16.085Z,5.00
2018-10-12T03:42:44.188Z,5.00
2018-10-12T03:45:12.193Z,5.10
2018-10-12T03:47:40.180Z,5.20
2018-10-12T03:50:08.202Z,4.50
2018-10-12T03:52:37.216Z,5.57
2018-10-12T03:55:05.373Z,4.37
2018-10-12T03:57:34.377Z,5.30
2018-10-12T04:00:02.378Z,4.93
2018-10-12T04:02:30.399Z,4.70
2018-10-12T04:04:58.381Z,4.63
2018-10-12T04:07:26.380Z,5.10
2018-10-12T04:09:54.365Z,5.43
2018-10-12T04:12:22.417Z,5.20
2018-10-12T04:14:50.357Z,4.87
2018-10-12T04:17:18.379Z,5.40
2018-10-12T04:19:46.372Z,5.50
2018-10-12T04:22:18.809Z,5.10
2018-10-12T04:24:46.796Z,5.47
2018-10-12T04:27:14.777Z,4.83
2018-10-12T04:29:42.789Z,5.40
2018-10-12T04:32:10.773Z,5.20
2018-10-12T04:34:38.789Z,5.13
2018-10-12T04:37:06.786Z,4.83
2018-10-12T04:39:41.573Z,5.30
2018-10-12T04:42:09.565Z,5.00
2018-10-12T04:44:37.571Z,5.10
2018-10-12T04:47:06.146Z,5.43
2018-10-12T04:49:34.100Z,5.73
2018-10-12T04:52:02.077Z,5.20
2018-10-12T04:54:30.105Z,5.13
2018-10-12T04:56:58.092Z,5.70
2018-10-12T04:59:26.116Z,4.70
2018-10-12T05:01:55.127Z,5.23
2018-10-12T05:04:23.152Z,4.60
2018-10-12T05:06:51.137Z,5.17
2018-10-12T05:09:19.130Z,5.80
2018-10-12T05:11:47.138Z,5.50
2018-10-12T05:14:15.117Z,5.33
2018-10-12T05:16:43.125Z,5.40
2018-10-12T05:19:11.104Z,5.40
2018-10-12T05:21:40.169Z,4.93
2018-10-12T05:24:08.168Z,4.87
2018-10-12T05:26:36.185Z,5.67
2018-10-12T05:29:04.192Z,5.43
2018-10-12T05:31:32.200Z,5.43
2018-10-12T05:34:00.193Z,5.93
2018-10-12T05:36:28.222Z,5.30
2018-10-12T05:38:56.215Z,5.87
2018-10-12T05:41:24.220Z,4.57
2018-10-12T05:43:52.345Z,5.10
2018-10-12T05:46:20.273Z,4.53
2018-10-12T05:48:53.727Z,5.00
2018-10-12T05:51:21.720Z,4.73
2018-10-12T05:53:50.340Z,4.90
2018-10-12T05:56:20.305Z,4.90
2018-10-12T05:58:48.508Z,4.70
2018-10-12T06:01:17.268Z,5.13
2018-10-12T06:03:46.866Z,4.40
2018-10-12T06:06:15.371Z,4.60
2018-10-12T06:08:44.108Z,5.40
2018-10-12T06:11:13.178Z,5.10
2018-10-12T06:13:41.280Z,4.77
2018-10-12T06:16:09.245Z,5.00
2018-10-12T06:18:37.413Z,10.40
2018-10-12T06:21:07.212Z,10.87
2018-10-12T06:23:35.746Z,11.13
2018-10-12T06:26:05.393Z,14.20
2018-10-12T06:28:33.811Z,15.87
2018-10-12T06:31:02.427Z,15.50
2018-10-12T06:33:31.977Z,17.73
2018-10-12T06:36:00.530Z,17.87
2018-10-12T06:38:29.025Z,18.60
2018-10-12T06:40:58.651Z,19.47
2018-10-12T06:43:26.686Z,18.23
2018-10-12T06:45:54.718Z,18.40
2018-10-12T06:48:22.712Z,19.40
2018-10-12T06:50:50.729Z,17.37
2018-10-12T06:53:18.748Z,18.30
2018-10-12T06:55:46.765Z,18.17
2018-10-12T06:58:14.774Z,17.67
2018-10-12T07:00:42.801Z,15.70
2018-10-12T07:03:10.821Z,15.90
2018-10-12T07:05:38.901Z,16.40
2018-10-12T07:08:06.844Z,16.90
2018-10-12T07:10:34.865Z,16.60
2018-10-12T07:13:02.882Z,16.70
2018-10-12T07:15:30.932Z,16.27
2018-10-12T07:17:58.925Z,14.80
2018-10-12T07:20:26.987Z,13.77
2018-10-12T07:22:55.192Z,14.03
2018-10-12T07:25:23.209Z,13.40
2018-10-12T07:27:51.419Z,15.60
2018-10-12T07:30:19.456Z,13.73
2018-10-12T07:32:48.477Z,13.07
2018-10-12T07:35:16.677Z,13.57
2018-10-12T07:37:45.553Z,12.50
2018-10-12T07:40:12.705Z,11.27
2018-10-12T07:42:40.697Z,11.63
2018-10-12T07:45:08.943Z,11.60
2018-10-12T07:47:36.910Z,10.93
2018-10-12T07:50:04.932Z,10.57
2018-10-12T07:52:32.912Z,11.30
2018-10-12T07:55:00.916Z,10.70
2018-10-12T07:57:28.901Z,11.23
2018-10-12T07:59:57.265Z,11.70
2018-10-12T08:02:25.222Z,10.03
2018-10-12T08:04:53.233Z,9.80
2018-10-12T08:07:21.247Z,10.53
2018-10-12T08:09:55.799Z,8.90
2018-10-12T08:12:23.783Z,9.70
2018-10-12T08:14:51.818Z,9.10
2018-10-12T08:17:19.829Z,9.30
2018-10-12T08:19:47.894Z,7.83
2018-10-12T08:22:15.894Z,8.90
2018-10-12T08:24:43.909Z,7.97
2018-10-12T08:27:12.252Z,8.50
2018-10-12T08:29:39.950Z,9.70
2018-10-12T08:32:07.973Z,8.03
2018-10-12T08:34:35.983Z,8.67
2018-10-12T08:37:03.980Z,7.97
2018-10-12T08:39:32.069Z,8.67
2018-10-12T08:42:07.666Z,9.03
2018-10-12T08:44:35.686Z,8.90
2018-10-12T08:47:03.729Z,6.43
2018-10-12T08:49:31.741Z,7.43
2018-10-12T08:51:59.810Z,7.93
2018-10-12T08:54:28.812Z,8.30
2018-10-12T08:56:56.834Z,8.10
2018-10-12T08:59:24.824Z,7.90
2018-10-12T09:01:52.846Z,7.60
2018-10-12T09:04:20.828Z,6.60
2018-10-12T09:06:48.844Z,8.37
2018-10-12T09:09:16.853Z,7.70
2018-10-12T09:11:44.837Z,8.10
2018-10-12T09:14:12.852Z,7.37
2018-10-12T09:16:40.851Z,7.70
2018-10-12T09:19:08.870Z,7.67
2018-10-12T09:21:36.861Z,6.17
2018-10-12T09:24:04.858Z,6.50
2018-10-12T09:26:32.862Z,7.00
2018-10-12T09:29:00.875Z,6.23
2018-10-12T09:31:28.885Z,7.10
2018-10-12T09:33:56.909Z,6.27
2018-10-12T09:36:24.911Z,6.67
2018-10-12T09:38:52.931Z,6.80
2018-10-12T09:41:21.928Z,7.53
2018-10-12T09:43:49.924Z,8.10
2018-10-12T09:46:17.950Z,7.27
2018-10-12T09:48:45.946Z,7.40
2018-10-12T09:51:14.004Z,6.10
2018-10-12T09:53:42.005Z,7.00
2018-10-12T09:56:10.093Z,6.07
2018-10-12T09:58:38.090Z,5.60
2018-10-12T10:01:11.636Z,5.93
2018-10-12T10:03:45.342Z,5.83
2018-10-12T10:06:13.374Z,4.93
2018-10-12T10:08:42.421Z,6.00
2018-10-12T10:11:10.397Z,5.97
2018-10-12T10:13:38.471Z,6.43
2018-10-12T10:16:06.458Z,6.50
2018-10-12T10:18:34.470Z,6.03
2018-10-12T10:21:02.454Z,5.30
2018-10-12T10:23:30.465Z,5.80
2018-10-12T10:25:58.459Z,5.93
2018-10-12T10:28:26.473Z,5.60
2018-10-12T10:30:54.461Z,5.60
2018-10-12T10:33:22.469Z,5.13
2018-10-12T10:35:50.462Z,5.77
2018-10-12T10:38:18.472Z,5.90
2018-10-12T10:40:46.882Z,5.30
2018-10-12T10:43:14.857Z,5.00
2018-10-12T10:45:42.851Z,5.33
2018-10-12T10:48:10.852Z,5.37
2018-10-12T10:50:38.845Z,5.60
2018-10-12T10:53:06.845Z,5.47
2018-10-12T10:55:34.829Z,5.87
2018-10-12T10:58:03.892Z,5.03
2018-10-12T11:00:31.878Z,5.07
2018-10-12T11:02:59.876Z,5.57
2018-10-12T11:05:27.860Z,5.10
2018-10-12T11:07:55.914Z,5.30
2018-10-12T11:10:23.997Z,5.50
2018-10-12T11:12:51.984Z,5.73
2018-10-12T11:15:19.945Z,5.37
2018-10-12T11:17:47.935Z,5.50
2018-10-12T11:20:15.945Z,5.87
2018-10-12T11:22:44.052Z,5.47
2018-10-12T11:25:12.070Z,4.30
2018-10-12T11:27:40.090Z,4.23
2018-10-12T11:30:08.435Z,4.60
2018-10-12T11:32:36.447Z,5.07
2018-10-12T11:35:05.445Z,5.77
2018-10-12T11:37:33.457Z,4.80
2018-10-12T11:40:01.462Z,4.90
2018-10-12T11:42:34.881Z,5.40
2018-10-12T11:45:02.996Z,4.73
2018-10-12T11:47:30.885Z,4.70
2018-10-12T11:49:58.884Z,4.83
2018-10-12T11:52:27.897Z,4.77
2018-10-12T11:54:55.881Z,4.50
2018-10-12T11:57:23.906Z,4.93
2018-10-12T11:59:51.908Z,4.70
2018-10-12T12:02:19.968Z,4.60
2018-10-12T12:04:47.918Z,4.40
2018-10-12T12:07:15.979Z,4.80
2018-10-12T12:09:43.909Z,4.37
2018-10-12T12:12:11.908Z,4.37
2018-10-12T12:14:39.912Z,4.30
2018-10-12T12:17:08.784Z,4.30
2018-10-12T12:19:36.772Z,4.63
2018-10-12T12:22:04.789Z,4.27
2018-10-12T12:24:32.769Z,4.83
2018-10-12T12:27:00.825Z,4.60
2018-10-12T12:29:28.821Z,5.10
2018-10-12T12:31:56.837Z,5.07
2018-10-12T12:34:24.834Z,3.60
2018-10-12T12:36:52.825Z,4.30
2018-10-12T12:39:20.857Z,4.63
2018-10-12T12:41:48.887Z,4.87
2018-10-12T12:44:16.914Z,4.60
2018-10-12T12:46:44.914Z,3.77
2018-10-12T12:49:13.290Z,4.60
2018-10-12T12:51:40.945Z,4.20
2018-10-12T12:54:08.950Z,4.07
2018-10-12T12:56:36.924Z,4.50
2018-10-12T12:59:04.937Z,4.27
2018-10-12T13:01:32.929Z,4.00
2018-10-12T13:04:00.921Z,4.50
2018-10-12T13:06:29.091Z,3.90
2018-10-12T13:08:57.020Z,4.73
2018-10-12T13:11:25.036Z,4.20
2018-10-12T13:13:53.079Z,4.00
2018-10-12T13:16:21.087Z,4.47
2018-10-12T13:18:49.093Z,3.93
2018-10-12T13:21:17.110Z,3.67
2018-10-12T13:23:45.090Z,4.20
2018-10-12T13:26:13.215Z,4.30
2018-10-12T13:28:41.070Z,3.80
2018-10-12T13:31:09.096Z,3.83
2018-10-12T13:33:37.110Z,3.60
2018-10-12T13:36:05.236Z,4.10
2018-10-12T13:38:34.185Z,3.60
2018-10-12T13:41:03.208Z,4.27
2018-10-12T13:43:31.204Z,3.90
2018-10-12T13:45:59.221Z,3.90
2018-10-12T13:48:27.235Z,3.20
2018-10-12T13:50:56.251Z,3.50
2018-10-12T13:53:24.367Z,3.80
2018-10-12T13:55:52.367Z,3.50
2018-10-12T13:58:21.408Z,3.80
2018-10-12T14:00:50.655Z,4.00
2018-10-12T14:03:18.866Z,3.23
2018-10-12T14:05:46.878Z,4.17
2018-10-12T14:08:14.998Z,3.63
2018-10-12T14:10:42.939Z,3.53
2018-10-12T14:13:10.907Z,3.50
2018-10-12T14:15:38.870Z,3.80
2018-10-12T14:18:06.901Z,3.83
2018-10-12T14:20:34.866Z,4.20
2018-10-12T14:23:02.879Z,3.20
2018-10-12T14:25:30.897Z,3.70
2018-10-12T14:27:58.909Z,3.70
2018-10-12T14:30:26.932Z,3.40
2018-10-12T14:32:54.973Z,3.80
2018-10-12T14:35:22.971Z,3.80
2018-10-12T14:37:52.097Z,3.27
2018-10-12T14:40:20.222Z,3.60
2018-10-12T14:42:48.226Z,3.60
2018-10-12T14:45:16.352Z,3.70
2018-10-12T14:47:45.361Z,3.47
2018-10-12T14:50:13.377Z,3.60
2018-10-12T14:52:41.369Z,3.60
2018-10-12T14:55:09.625Z,3.77
2018-10-12T14:57:37.617Z,4.13
2018-10-12T15:00:06.394Z,3.40
2018-10-12T15:02:34.441Z,3.40
2018-10-12T15:05:02.437Z,4.10
2018-10-12T15:07:31.436Z,2.93
2018-10-12T15:09:59.420Z,2.77
2018-10-12T15:12:27.424Z,3.70
2018-10-12T15:15:17.597Z,2.80
2018-10-12T15:17:45.920Z,3.60
2018-10-12T15:20:13.897Z,3.33
2018-10-12T15:22:41.949Z,3.70
2018-10-12T15:25:11.141Z,3.77
2018-10-12T15:27:39.636Z,3.57
2018-10-12T15:30:07.999Z,3.43
2018-10-12T15:32:36.181Z,3.07
2018-10-12T15:35:04.215Z,3.47
2018-10-12T15:37:32.230Z,3.40
2018-10-12T15:40:00.472Z,3.10
2018-10-12T15:42:28.474Z,3.20
2018-10-12T15:44:56.568Z,3.50
2018-10-12T15:47:24.776Z,4.53
2018-10-12T15:49:53.110Z,3.40
2018-10-12T15:52:21.134Z,2.63
2018-10-12T15:54:49.596Z,3.00
2018-10-12T15:57:17.647Z,3.27
2018-10-12T15:59:46.358Z,2.80
2018-10-12T16:02:15.566Z,2.57
2018-10-12T16:04:44.033Z,3.23
2018-10-12T16:07:12.327Z,4.20
2018-10-12T16:09:40.327Z,2.93
2018-10-12T16:12:08.357Z,3.50
2018-10-12T16:14:36.396Z,3.13
2018-10-12T16:17:04.354Z,3.00
2018-10-12T16:19:32.360Z,3.13
2018-10-12T16:22:00.353Z,2.80
2018-10-12T16:24:28.368Z,3.10
2018-10-12T16:26:56.355Z,3.03
2018-10-12T16:29:24.442Z,3.13
2018-10-12T16:31:52.492Z,3.53
2018-10-12T16:34:20.532Z,2.70
2018-10-12T16:36:48.622Z,2.83
2018-10-12T16:39:16.533Z,2.87
2018-10-12T16:41:44.525Z,3.73
2018-10-12T16:44:12.556Z,2.90
2018-10-12T16:46:40.533Z,3.23
2018-10-12T16:49:08.537Z,3.40
2018-10-12T16:51:36.547Z,3.03
2018-10-12T16:54:04.600Z,2.67
2018-10-12T16:56:32.534Z,3.57
2018-10-12T16:59:00.490Z,2.63
2018-10-12T17:01:28.450Z,2.83
2018-10-12T17:03:56.449Z,2.90
2018-10-12T17:06:24.457Z,3.13
2018-10-12T17:08:52.452Z,3.03
2018-10-12T17:11:20.466Z,3.10
2018-10-12T17:13:48.468Z,3.03
2018-10-12T17:16:16.496Z,2.70
2018-10-12T17:18:44.469Z,3.03
2018-10-12T17:21:12.476Z,3.13
2018-10-12T17:23:40.501Z,2.93
2018-10-12T17:26:08.540Z,2.83
2018-10-12T17:28:36.528Z,3.13
2018-10-12T17:31:04.578Z,2.50
2018-10-12T17:33:32.658Z,2.30
2018-10-12T17:36:00.705Z,2.80
2018-10-12T17:38:28.716Z,2.87
2018-10-12T17:40:57.717Z,2.53
2018-10-12T17:43:25.747Z,3.27
2018-10-12T17:45:53.729Z,2.93
2018-10-12T17:48:21.765Z,2.80
2018-10-12T17:50:49.761Z,2.70
2018-10-12T17:53:17.797Z,3.13
2018-10-12T17:55:45.786Z,2.37
2018-10-12T17:58:14.818Z,3.00
2018-10-12T18:00:42.833Z,2.43
2018-10-12T18:03:10.862Z,3.20
2018-10-12T18:05:38.842Z,2.60
2018-10-12T18:08:06.842Z,2.70
2018-10-12T18:10:34.873Z,2.60
2018-10-12T18:13:02.879Z,3.10
2018-10-12T18:15:30.966Z,2.40
2018-10-12T18:17:58.961Z,3.40
2018-10-12T18:20:26.952Z,2.60
2018-10-12T18:22:54.947Z,2.57
2018-10-12T18:25:22.977Z,2.20
2018-10-12T18:27:50.970Z,2.90
2018-10-12T18:30:19.001Z,2.97
2018-10-12T18:32:46.985Z,2.90
2018-10-12T18:35:15.016Z,2.43
2018-10-12T18:37:43.020Z,2.70
2018-10-12T18:40:12.022Z,2.50
2018-10-12T18:42:39.989Z,2.23
2018-10-12T18:45:07.965Z,2.40
2018-10-12T18:47:36.001Z,3.40
2018-10-12T18:50:04.162Z,3.07
2018-10-12T18:52:32.252Z,3.73
2018-10-12T18:55:00.269Z,3.33
2018-10-12T18:57:32.041Z,3.20
2018-10-12T19:00:00.656Z,2.80
2018-10-12T19:02:29.141Z,3.03
2018-10-12T19:04:57.692Z,2.83
2018-10-12T19:07:26.290Z,2.70
2018-10-12T19:09:54.925Z,2.50
2018-10-12T19:12:24.447Z,3.37
2018-10-12T19:14:54.040Z,4.00
2018-10-12T19:17:22.640Z,3.87
2018-10-12T19:19:51.762Z,3.47
2018-10-12T19:22:20.319Z,3.17
2018-10-12T19:24:48.930Z,3.20
2018-10-12T19:27:17.406Z,3.40
2018-10-12T19:29:45.987Z,3.43
2018-10-12T19:32:14.530Z,3.30
2018-10-12T19:34:42.986Z,3.07
2018-10-12T19:37:12.678Z,3.53
2018-10-12T19:39:42.302Z,3.40
2018-10-12T19:44:47.040Z,3.30
2018-10-12T19:47:15.063Z,3.43
2018-10-12T19:49:43.061Z,2.73
2018-10-12T19:52:11.090Z,4.73
2018-10-12T19:54:39.090Z,3.43
2018-10-12T19:57:07.095Z,3.40
2018-10-12T19:59:35.213Z,3.03
2018-10-12T20:02:03.236Z,3.07
2018-10-12T20:04:31.251Z,3.63
2018-10-12T20:07:00.058Z,3.73
2018-10-12T20:09:28.063Z,3.60
2018-10-12T20:11:56.121Z,3.17
2018-10-12T20:14:24.219Z,2.90
2018-10-12T20:16:52.294Z,3.60
2018-10-12T20:19:20.275Z,2.83
2018-10-12T20:21:48.257Z,3.83
2018-10-12T20:24:16.269Z,3.00
2018-10-12T20:26:44.274Z,3.33
2018-10-12T20:29:12.256Z,4.30
2018-10-12T20:31:40.375Z,3.37
2018-10-12T20:34:08.268Z,3.27
2018-10-12T20:36:36.283Z,3.63
2018-10-12T20:39:06.153Z,3.73
2018-10-12T20:41:34.133Z,3.17
2018-10-12T20:44:02.129Z,3.27
2018-10-12T20:46:30.127Z,3.80
2018-10-12T20:48:58.125Z,3.10
2018-10-12T20:51:26.170Z,2.70
2018-10-12T20:53:54.253Z,3.57
2018-10-12T20:56:22.254Z,3.43
2018-10-12T20:58:50.257Z,3.50
2018-10-12T21:01:18.276Z,3.50
2018-10-12T21:03:46.287Z,3.30
2018-10-12T21:06:14.306Z,2.73
2018-10-12T21:08:42.300Z,2.83
2018-10-12T21:11:10.328Z,3.57
2018-10-12T21:13:38.412Z,3.00
2018-10-12T21:16:06.648Z,3.33
2018-10-12T21:18:34.643Z,3.10
2018-10-12T21:21:02.657Z,3.17
2018-10-12T21:23:30.649Z,3.80
2018-10-12T21:25:59.653Z,3.43
2018-10-12T21:28:27.669Z,3.23
2018-10-12T21:30:55.666Z,2.97
2018-10-12T21:33:23.705Z,4.20
2018-10-12T21:35:51.689Z,3.53
2018-10-12T21:38:20.712Z,3.10
2018-10-12T21:40:48.703Z,3.00
2018-10-12T21:43:16.744Z,2.40
2018-10-12T21:45:44.750Z,3.50
2018-10-12T21:48:12.811Z,3.93
2018-10-12T21:50:40.846Z,2.97
2018-10-12T21:53:08.865Z,2.90
2018-10-12T21:55:36.872Z,3.17
2018-10-12T21:58:04.911Z,3.47
2018-10-12T22:00:33.939Z,3.00
2018-10-12T22:03:02.286Z,3.40
2018-10-12T22:05:30.313Z,3.23
2018-10-12T22:07:58.307Z,2.97
2018-10-12T22:10:26.312Z,2.60
2018-10-12T22:12:54.377Z,2.90
2018-10-12T22:15:22.372Z,2.77
2018-10-12T22:17:50.400Z,3.30
2018-10-12T22:20:18.397Z,3.50
2018-10-12T22:22:46.425Z,3.37
2018-10-12T22:25:14.414Z,3.40
2018-10-12T22:27:42.420Z,3.13
2018-10-12T22:30:10.406Z,3.53
2018-10-12T22:32:38.418Z,3.60
2018-10-12T22:35:06.410Z,3.80
2018-10-12T22:37:34.442Z,3.43
2018-10-12T22:40:02.489Z,3.40
2018-10-12T22:42:30.493Z,2.87
2018-10-12T22:44:58.472Z,3.17
2018-10-12T22:47:26.526Z,2.90
2018-10-12T22:49:55.092Z,2.50
2018-10-12T22:52:24.744Z,2.90
2018-10-12T22:54:53.169Z,2.90
2018-10-12T22:57:21.653Z,2.27
2018-10-12T22:59:50.216Z,3.17
2018-10-12T23:02:19.851Z,3.47
2018-10-12T23:04:49.410Z,2.93
2018-10-12T23:07:17.992Z,3.17
2018-10-12T23:09:46.518Z,3.30
2018-10-12T23:12:15.157Z,3.10
2018-10-12T23:14:43.544Z,2.80
2018-10-12T23:17:12.112Z,3.17
2018-10-12T23:19:40.552Z,3.00
2018-10-12T23:22:08.999Z,2.87
2018-10-12T23:24:38.001Z,2.73
2018-10-12T23:27:06.759Z,2.93
2018-10-12T23:29:35.282Z,2.57
2018-10-12T23:32:03.872Z,3.20
2018-10-12T23:34:33.499Z,3.13
2018-10-12T23:37:02.077Z,3.40
2018-10-12T23:39:30.471Z,3.50
2018-10-12T23:42:00.073Z,2.93
2018-10-12T23:44:28.744Z,3.10
2018-10-12T23:46:57.220Z,2.97
2018-10-12T23:49:25.872Z,2.50
2018-10-12T23:51:54.791Z,2.60
2018-10-12T23:54:23.369Z,3.00
2018-10-12T23:56:51.846Z,3.10
2018-10-12T23:59:20.365Z,3.10
